Time;durP1;ratioP1;P1;durP2;ratioP2;P2;SDS_P1;SDS_P2;PMS_P1;PMS_P2;Temp;Humidity;BMP_temperature;BMP_pressure;BME280_temperature;BME280_humidity;BME280_pressure;Samples;Min_cycle;Max_cycle;Signal;HPM_P1;HPM_P2
2021/10/12 00:01:55;;;;;;;;;9.00;5.00;;;;;;;;5015230;28;45237;-72
2021/10/12 00:04:20;;;;;;;;;9.00;6.50;;;;;;;;5015030;28;45212;-72
2021/10/12 00:06:45;;;;;;;;;7.75;6.50;;;;;;;;5014943;28;45554;-66
2021/10/12 00:09:11;;;;;;;;;8.50;6.00;;;;;;;;5013563;28;47257;-73
2021/10/12 00:11:36;;;;;;;;;6.25;6.25;;;;;;;;5016646;28;45392;-71
2021/10/12 00:14:01;;;;;;;;;6.50;6.25;;;;;;;;5018154;28;45387;-68
2021/10/12 00:16:26;;;;;;;;;8.00;6.75;;;;;;;;5018492;28;45320;-66
2021/10/12 00:18:52;;;;;;;;;6.00;6.00;;;;;;;;5018007;28;45343;-65
2021/10/12 00:21:17;;;;;;;;;6.25;6.00;;;;;;;;5017947;28;45260;-66
2021/10/12 00:23:43;;;;;;;;;7.75;7.25;;;;;;;;5018004;28;45877;-64
2021/10/12 00:26:08;;;;;;;;;8.50;7.25;;;;;;;;5018269;28;45233;-64
2021/10/12 00:28:33;;;;;;;;;8.00;7.00;;;;;;;;5016522;28;46885;-64
2021/10/12 00:30:58;;;;;;;;;7.75;7.75;;;;;;;;5018039;28;45472;-68
2021/10/12 00:33:24;;;;;;;;;8.25;7.00;;;;;;;;5017692;28;45386;-68
2021/10/12 00:35:49;;;;;;;;;10.50;6.50;;;;;;;;5016953;28;45284;-67
2021/10/12 00:38:15;;;;;;;;;6.75;6.75;;;;;;;;5018005;28;46237;-68
2021/10/12 00:40:40;;;;;;;;;11.00;8.25;;;;;;;;5017894;28;45346;-71
2021/10/12 00:43:06;;;;;;;;;12.75;8.00;;;;;;;;5017946;28;45370;-67
2021/10/12 00:45:31;;;;;;;;;6.50;4.00;;;;;;;;5017871;28;45383;-69
2021/10/12 00:48:00;;;;;;;;;6.50;6.50;;;;;;;;5018139;28;46222;-65
2021/10/12 00:50:27;;;;;;;;;6.00;6.00;;;;;;;;5016561;28;45244;-69
2021/10/12 00:52:52;;;;;;;;;9.50;6.00;;;;;;;;5017545;28;45371;-68
2021/10/12 00:55:17;;;;;;;;;8.75;8.25;;;;;;;;5016191;28;45556;-70
2021/10/12 00:57:42;;;;;;;;;9.75;7.75;;;;;;;;5017250;28;46282;-65
2021/10/12 01:00:10;;;;;;;;;11.25;8.25;;;;;;;;5017370;28;45356;-66
2021/10/12 01:02:36;;;;;;;;;12.00;8.00;;;;;;;;5017343;28;45333;-67
2021/10/12 01:05:02;;;;;;;;;9.50;7.75;;;;;;;;5017534;28;45463;-64
2021/10/12 01:07:27;;;;;;;;;9.25;7.00;;;;;;;;5016208;28;47170;-67
2021/10/12 01:09:53;;;;;;;;;8.00;7.00;;;;;;;;5017216;28;45376;-69
2021/10/12 01:12:18;;;;;;;;;7.75;6.00;;;;;;;;5017174;28;45685;-67
2021/10/12 01:14:43;;;;;;;;;8.00;7.25;;;;;;;;5017173;28;45336;-69
2021/10/12 01:17:09;;;;;;;;;6.25;6.25;;;;;;;;5015699;28;47102;-68
2021/10/12 01:19:34;;;;;;;;;7.50;6.00;;;;;;;;5017196;28;45338;-67
2021/10/12 01:21:59;;;;;;;;;8.00;6.00;;;;;;;;5017138;28;45252;-70
2021/10/12 01:24:25;;;;;;;;;6.00;5.00;;;;;;;;5017041;28;45200;-66
2021/10/12 01:26:50;;;;;;;;;10.50;9.00;;;;;;;;5016630;28;46422;-67
2021/10/12 01:29:16;;;;;;;;;8.75;7.75;;;;;;;;5016783;28;45248;-68
2021/10/12 01:31:42;;;;;;;;;8.00;8.00;;;;;;;;5017216;28;45337;-64
2021/10/12 01:34:11;;;;;;;;;10.50;9.75;;;;;;;;5016972;28;45411;-64
2021/10/12 01:36:37;;;;;;;;;9.25;7.00;;;;;;;;5016733;28;46066;-64
2021/10/12 01:39:02;;;;;;;;;6.75;5.50;;;;;;;;5016945;28;45374;-64
2021/10/12 01:41:27;;;;;;;;;9.00;7.75;;;;;;;;5017378;28;45327;-65
2021/10/12 01:43:52;;;;;;;;;7.25;7.25;;;;;;;;5016783;28;45319;-65
2021/10/12 01:46:18;;;;;;;;;7.00;7.00;;;;;;;;5016570;28;45367;-68
2021/10/12 01:48:43;;;;;;;;;12.00;7.00;;;;;;;;5016471;28;45320;-66
2021/10/12 01:51:08;;;;;;;;;9.75;8.00;;;;;;;;5016692;28;45234;-67
2021/10/12 01:53:33;;;;;;;;;8.50;6.75;;;;;;;;5016738;28;45563;-66
2021/10/12 01:55:59;;;;;;;;;7.25;7.25;;;;;;;;5016488;28;45454;-64
2021/10/12 01:58:24;;;;;;;;;7.00;7.00;;;;;;;;5016283;28;45490;-66
2021/10/12 02:00:49;;;;;;;;;9.00;7.00;;;;;;;;5016816;28;45297;-68
2021/10/12 02:03:14;;;;;;;;;11.50;7.75;;;;;;;;5016655;28;45233;-64
2021/10/12 02:05:40;;;;;;;;;9.00;8.00;;;;;;;;5016286;28;45521;-64
2021/10/12 02:08:05;;;;;;;;;7.50;7.50;;;;;;;;5016437;28;45315;-65
2021/10/12 02:10:30;;;;;;;;;11.00;7.50;;;;;;;;5016810;28;45256;-66
2021/10/12 02:12:55;;;;;;;;;7.25;6.00;;;;;;;;5015023;28;45196;-67
2021/10/12 02:15:21;;;;;;;;;9.75;8.00;;;;;;;;5015931;28;45275;-67
2021/10/12 02:17:46;;;;;;;;;9.25;9.00;;;;;;;;5016172;28;45249;-67
2021/10/12 02:20:11;;;;;;;;;9.00;7.00;;;;;;;;5016136;28;45416;-66
2021/10/12 02:22:37;;;;;;;;;9.25;7.25;;;;;;;;5016282;28;45295;-63
2021/10/12 02:25:03;;;;;;;;;9.25;8.50;;;;;;;;5016150;28;45344;-64
2021/10/12 02:27:29;;;;;;;;;12.75;9.00;;;;;;;;5014491;28;45620;-67
2021/10/12 02:29:54;;;;;;;;;7.25;7.00;;;;;;;;5015951;28;45363;-64
2021/10/12 02:32:19;;;;;;;;;11.00;8.00;;;;;;;;5016144;28;45485;-67
2021/10/12 02:34:45;;;;;;;;;8.50;7.50;;;;;;;;5014851;28;46124;-67
2021/10/12 02:37:10;;;;;;;;;9.00;7.00;;;;;;;;5015573;28;45370;-66
2021/10/12 02:39:36;;;;;;;;;11.25;6.50;;;;;;;;5015818;28;45233;-66
2021/10/12 02:42:02;;;;;;;;;8.25;7.00;;;;;;;;5015998;28;45466;-67
2021/10/12 02:44:27;;;;;;;;;9.25;8.00;;;;;;;;5015686;28;46595;-67
2021/10/12 02:46:52;;;;;;;;;12.50;10.75;;;;;;;;5015618;28;45434;-66
2021/10/12 02:49:18;;;;;;;;;12.00;9.00;;;;;;;;5015619;28;45411;-65
2021/10/12 02:51:43;;;;;;;;;10.75;7.50;;;;;;;;5015895;28;45322;-68
2021/10/12 02:54:08;;;;;;;;;17.25;9.00;;;;;;;;5015537;28;46222;-67
2021/10/12 02:56:34;;;;;;;;;9.75;8.50;;;;;;;;5015593;28;45241;-68
2021/10/12 02:58:59;;;;;;;;;9.75;8.00;;;;;;;;5015618;28;45276;-68
2021/10/12 03:01:24;;;;;;;;;12.00;8.50;;;;;;;;5015888;28;45195;-68
2021/10/12 03:03:50;;;;;;;;;7.75;7.50;;;;;;;;5015287;28;45466;-66
2021/10/12 03:06:15;;;;;;;;;8.50;6.25;;;;;;;;5015300;28;45206;-68
2021/10/12 03:08:40;;;;;;;;;11.00;8.25;;;;;;;;5013973;28;45315;-65
2021/10/12 03:11:05;;;;;;;;;9.50;6.75;;;;;;;;5015881;28;45613;-65
2021/10/12 03:13:31;;;;;;;;;11.25;9.00;;;;;;;;5013868;28;48453;-63
2021/10/12 03:15:56;;;;;;;;;9.50;8.00;;;;;;;;5015124;28;45281;-67
2021/10/12 03:18:21;;;;;;;;;10.75;9.00;;;;;;;;5015385;28;45225;-65
2021/10/12 03:20:47;;;;;;;;;10.25;8.00;;;;;;;;5015326;28;45646;-66
2021/10/12 03:23:12;;;;;;;;;11.00;9.00;;;;;;;;5015119;28;45782;-65
2021/10/12 03:25:37;;;;;;;;;9.75;8.50;;;;;;;;5014033;28;45242;-65
2021/10/12 03:28:03;;;;;;;;;8.50;8.50;;;;;;;;5015108;28;45260;-67
2021/10/12 03:30:28;;;;;;;;;8.25;8.25;;;;;;;;5015510;28;45450;-68
2021/10/12 03:32:53;;;;;;;;;8.00;8.00;;;;;;;;5015040;28;46183;-69
2021/10/12 03:35:25;;;;;;;;;12.50;8.25;;;;;;;;5014888;28;45252;-66
2021/10/12 03:37:50;;;;;;;;;9.25;8.25;;;;;;;;5015385;28;45359;-66
2021/10/12 03:40:16;;;;;;;;;11.00;9.75;;;;;;;;5014978;28;45257;-65
2021/10/12 03:42:41;;;;;;;;;6.25;6.00;;;;;;;;5014659;28;45477;-65
2021/10/12 03:45:06;;;;;;;;;11.50;8.00;;;;;;;;5016328;28;45295;-65
2021/10/12 03:47:31;;;;;;;;;10.75;7.00;;;;;;;;5018281;28;45815;-67
2021/10/12 03:49:57;;;;;;;;;12.25;8.25;;;;;;;;5018594;28;45478;-67
2021/10/12 03:52:22;;;;;;;;;13.75;8.75;;;;;;;;5018306;28;45566;-66
2021/10/12 03:54:47;;;;;;;;;11.75;8.25;;;;;;;;5018383;28;45336;-68
2021/10/12 03:57:12;;;;;;;;;13.25;9.00;;;;;;;;5018074;28;45321;-69
2021/10/12 03:59:38;;;;;;;;;11.00;8.00;;;;;;;;5017394;28;45548;-67
2021/10/12 04:02:03;;;;;;;;;7.25;7.25;;;;;;;;5018147;28;45514;-67
2021/10/12 04:04:28;;;;;;;;;11.25;8.75;;;;;;;;5018072;28;45340;-69
2021/10/12 04:06:53;;;;;;;;;8.75;8.75;;;;;;;;5018340;28;45289;-69
2021/10/12 04:09:18;;;;;;;;;11.00;7.50;;;;;;;;5018439;28;45574;-67
2021/10/12 04:11:44;;;;;;;;;9.00;7.50;;;;;;;;5017652;28;45356;-69
2021/10/12 04:14:09;;;;;;;;;6.50;5.00;;;;;;;;5018342;28;45377;-68
2021/10/12 04:16:35;;;;;;;;;8.00;8.00;;;;;;;;5018108;28;45329;-66
2021/10/12 04:19:00;;;;;;;;;9.00;7.50;;;;;;;;5018288;28;45558;-67
2021/10/12 04:21:26;;;;;;;;;8.50;7.75;;;;;;;;5016184;28;47444;-67
2021/10/12 04:23:52;;;;;;;;;10.75;7.75;;;;;;;;5017828;28;45328;-66
2021/10/12 04:26:19;;;;;;;;;9.75;8.00;;;;;;;;5017946;28;45311;-65
2021/10/12 04:28:44;;;;;;;;;7.50;6.75;;;;;;;;5018125;28;45343;-68
2021/10/12 04:31:09;;;;;;;;;10.00;6.50;;;;;;;;5017958;28;46300;-69
2021/10/12 04:33:34;;;;;;;;;7.50;7.00;;;;;;;;5016296;28;46028;-70
2021/10/12 04:36:00;;;;;;;;;9.00;8.00;;;;;;;;5018119;28;45415;-69
2021/10/12 04:38:25;;;;;;;;;7.75;7.00;;;;;;;;5018212;28;45254;-68
2021/10/12 04:40:50;;;;;;;;;6.25;6.00;;;;;;;;5017765;28;45589;-68
2021/10/12 04:43:16;;;;;;;;;9.25;9.00;;;;;;;;5017573;28;45257;-67
2021/10/12 04:45:41;;;;;;;;;7.75;6.75;;;;;;;;5017619;28;45240;-66
2021/10/12 04:48:06;;;;;;;;;8.00;8.00;;;;;;;;5017841;28;45528;-65
2021/10/12 04:50:31;;;;;;;;;9.25;9.25;;;;;;;;5017484;28;45349;-67
2021/10/12 04:52:57;;;;;;;;;9.00;8.00;;;;;;;;5017267;28;45242;-67
2021/10/12 04:55:22;;;;;;;;;12.75;11.75;;;;;;;;5017307;28;45340;-65
2021/10/12 04:57:47;;;;;;;;;12.00;9.00;;;;;;;;5016617;28;45516;-66
2021/10/12 05:00:12;;;;;;;;;9.00;7.50;;;;;;;;5016977;28;46635;-64
2021/10/12 05:02:38;;;;;;;;;7.50;6.00;;;;;;;;5017292;28;45341;-67
2021/10/12 05:05:03;;;;;;;;;15.25;8.00;;;;;;;;5016091;28;45336;-64
2021/10/12 05:07:28;;;;;;;;;11.25;7.75;;;;;;;;5017773;28;45299;-67
2021/10/12 05:09:53;;;;;;;;;9.50;9.25;;;;;;;;5017624;28;45586;-67
2021/10/12 05:12:19;;;;;;;;;9.25;8.00;;;;;;;;5016939;28;45314;-68
2021/10/12 05:14:44;;;;;;;;;11.00;10.00;;;;;;;;5017318;28;45382;-69
2021/10/12 05:17:16;;;;;;;;;12.75;10.75;;;;;;;;5017637;28;45525;-67
2021/10/12 05:19:41;;;;;;;;;13.25;10.00;;;;;;;;5015937;28;47600;-69
2021/10/12 05:22:07;;;;;;;;;10.75;9.75;;;;;;;;5015404;28;45269;-68
2021/10/12 05:24:32;;;;;;;;;14.00;10.00;;;;;;;;5015264;28;45274;-67
2021/10/12 05:26:57;;;;;;;;;15.75;10.50;;;;;;;;5017113;28;45150;-67
2021/10/12 05:29:23;;;;;;;;;12.50;10.25;;;;;;;;5017110;28;45302;-70
2021/10/12 05:31:48;;;;;;;;;11.75;9.25;;;;;;;;5017005;28;45386;-66
2021/10/12 05:34:13;;;;;;;;;9.25;7.00;;;;;;;;5017415;28;45337;-66
2021/10/12 05:36:39;;;;;;;;;9.00;8.50;;;;;;;;5016184;28;45439;-65
2021/10/12 05:39:04;;;;;;;;;10.00;9.00;;;;;;;;5016889;28;46675;-66
2021/10/12 05:41:29;;;;;;;;;14.75;10.75;;;;;;;;5016685;28;45392;-68
2021/10/12 05:43:54;;;;;;;;;12.00;9.50;;;;;;;;5016660;28;45387;-67
2021/10/12 05:46:21;;;;;;;;;8.00;7.00;;;;;;;;5015509;28;45601;-69
2021/10/12 05:48:46;;;;;;;;;12.00;12.00;;;;;;;;5016340;28;46667;-66
2021/10/12 05:51:15;;;;;;;;;11.50;8.75;;;;;;;;5016741;28;45342;-66
2021/10/12 05:53:49;;;;;;;;;13.75;10.00;;;;;;;;5016511;28;45297;-65
2021/10/12 05:56:30;;;;;;;;;12.50;9.50;;;;;;;;5014693;28;45213;-65
2021/10/12 05:58:55;;;;;;;;;11.00;10.00;;;;;;;;5015874;28;46718;-69
2021/10/12 06:01:21;;;;;;;;;13.25;10.75;;;;;;;;5016000;28;45352;-65
2021/10/12 06:03:47;;;;;;;;;12.50;11.00;;;;;;;;5016119;28;45632;-69
2021/10/12 06:06:12;;;;;;;;;10.00;9.00;;;;;;;;5016625;28;45435;-67
2021/10/12 06:08:38;;;;;;;;;12.25;8.50;;;;;;;;5015064;28;46074;-70
2021/10/12 06:11:04;;;;;;;;;10.75;10.75;;;;;;;;5016166;28;45311;-67
2021/10/12 06:13:30;;;;;;;;;11.50;9.50;;;;;;;;5014979;28;45262;-68
2021/10/12 06:15:56;;;;;;;;;11.50;8.75;;;;;;;;5016219;28;45644;-67
2021/10/12 06:18:21;;;;;;;;;14.25;11.25;;;;;;;;5015770;28;46568;-67
2021/10/12 06:20:47;;;;;;;;;17.00;10.00;;;;;;;;5015653;28;45308;-67
2021/10/12 06:23:12;;;;;;;;;12.50;9.50;;;;;;;;5016265;28;45268;-68
2021/10/12 06:25:38;;;;;;;;;16.50;12.25;;;;;;;;5015954;28;45510;-68
2021/10/12 06:28:03;;;;;;;;;11.50;11.25;;;;;;;;5015385;28;46256;-66
2021/10/12 06:30:28;;;;;;;;;10.25;9.00;;;;;;;;5015482;28;45184;-67
2021/10/12 06:32:54;;;;;;;;;14.50;12.50;;;;;;;;5015747;28;45352;-67
2021/10/12 06:35:19;;;;;;;;;13.25;13.25;;;;;;;;5015941;28;45441;-68
2021/10/12 06:37:44;;;;;;;;;11.25;11.00;;;;;;;;5014351;28;48165;-67
2021/10/12 06:40:10;;;;;;;;;13.50;12.50;;;;;;;;5015420;28;45371;-65
2021/10/12 06:42:35;;;;;;;;;13.75;12.50;;;;;;;;5015346;28;45464;-67
2021/10/12 06:45:01;;;;;;;;;16.50;13.00;;;;;;;;5014192;28;45650;-64
2021/10/12 06:47:26;;;;;;;;;23.25;15.00;;;;;;;;5015118;28;45593;-67
2021/10/12 06:49:52;;;;;;;;;12.75;12.75;;;;;;;;5015565;28;45440;-68
2021/10/12 06:52:17;;;;;;;;;14.75;10.00;;;;;;;;5016116;28;45378;-64
2021/10/12 06:54:44;;;;;;;;;13.75;12.75;;;;;;;;5016050;28;45602;-70
2021/10/12 06:57:12;;;;;;;;;14.50;12.50;;;;;;;;5015024;28;46098;-68
2021/10/12 06:59:37;;;;;;;;;13.75;11.50;;;;;;;;5015249;28;45245;-73
2021/10/12 07:02:03;;;;;;;;;14.50;10.00;;;;;;;;5015469;28;45278;-71
2021/10/12 07:04:28;;;;;;;;;11.75;11.25;;;;;;;;5015518;28;45388;-72
2021/10/12 07:06:53;;;;;;;;;18.50;13.75;;;;;;;;5015959;28;45549;-70
2021/10/12 07:09:19;;;;;;;;;15.00;12.25;;;;;;;;5015807;28;45299;-68
2021/10/12 07:11:44;;;;;;;;;16.50;13.75;;;;;;;;5016053;28;45336;-68
2021/10/12 07:14:10;;;;;;;;;20.50;13.75;;;;;;;;5017726;28;45260;-70
2021/10/12 07:16:35;;;;;;;;;15.75;14.00;;;;;;;;5016440;28;45411;-69
2021/10/12 07:19:01;;;;;;;;;17.50;13.00;;;;;;;;5019551;28;45383;-75
2021/10/12 07:21:26;;;;;;;;;18.00;16.75;;;;;;;;5017543;28;45484;-70
2021/10/12 07:23:52;;;;;;;;;19.50;13.50;;;;;;;;5015946;28;45527;-71
2021/10/12 07:26:17;;;;;;;;;14.00;11.50;;;;;;;;5015229;28;46292;-70
2021/10/12 07:28:42;;;;;;;;;10.00;8.50;;;;;;;;5014614;28;45374;-70
2021/10/12 07:31:08;;;;;;;;;12.00;10.25;;;;;;;;5013504;28;45460;-69
2021/10/12 07:33:33;;;;;;;;;12.50;11.50;;;;;;;;5015011;28;45382;-67
2021/10/12 07:35:59;;;;;;;;;10.00;9.00;;;;;;;;5014416;28;45418;-68
2021/10/12 07:38:24;;;;;;;;;14.00;9.50;;;;;;;;5013505;28;45330;-73
2021/10/12 07:40:49;;;;;;;;;15.25;11.00;;;;;;;;5014030;28;45409;-71
2021/10/12 07:43:15;;;;;;;;;13.00;10.25;;;;;;;;5015171;28;45434;-72
2021/10/12 07:45:40;;;;;;;;;21.50;18.25;;;;;;;;5014940;28;46233;-75
2021/10/12 07:48:05;;;;;;;;;15.75;11.50;;;;;;;;5014975;28;45285;-70
2021/10/12 07:50:31;;;;;;;;;22.75;17.00;;;;;;;;5014790;28;45245;-70
2021/10/12 07:52:56;;;;;;;;;29.50;20.00;;;;;;;;5015217;28;45578;-71
2021/10/12 07:58:01;;;;;;;;;20.00;15.50;;;;;;;;5014693;28;45197;-69
2021/10/12 08:00:28;;;;;;;;;18.00;16.75;;;;;;;;5014364;28;45408;-72
2021/10/12 08:02:53;;;;;;;;;19.50;16.50;;;;;;;;5014379;28;45616;-69
2021/10/12 08:05:19;;;;;;;;;20.75;18.75;;;;;;;;5014586;28;45677;-69
2021/10/12 08:07:45;;;;;;;;;22.25;15.50;;;;;;;;5014274;28;45271;-72
2021/10/12 08:10:10;;;;;;;;;20.50;17.00;;;;;;;;5013202;28;45357;-70
2021/10/12 08:12:35;;;;;;;;;23.25;19.75;;;;;;;;5013141;28;45485;-71
2021/10/12 08:15:01;;;;;;;;;20.50;16.25;;;;;;;;5014400;28;46776;-68
2021/10/12 08:17:26;;;;;;;;;11.75;11.00;;;;;;;;5014411;28;45283;-71
2021/10/12 08:19:51;;;;;;;;;20.00;15.00;;;;;;;;5015445;28;45285;-72
2021/10/12 08:22:17;;;;;;;;;18.50;14.25;;;;;;;;5016325;28;45241;-76
2021/10/12 08:24:42;;;;;;;;;19.50;14.25;;;;;;;;5015934;28;45455;-75
2021/10/12 08:27:08;;;;;;;;;22.25;16.25;;;;;;;;5017047;28;45196;-72
2021/10/12 08:29:33;;;;;;;;;21.00;16.50;;;;;;;;5019118;28;45302;-72
2021/10/12 08:31:58;;;;;;;;;17.25;13.25;;;;;;;;5017929;28;45345;-71
2021/10/12 08:34:23;;;;;;;;;14.50;14.50;;;;;;;;5019227;28;46213;-73
2021/10/12 08:36:49;;;;;;;;;14.00;13.50;;;;;;;;5017738;28;45297;-69
2021/10/12 08:39:14;;;;;;;;;14.50;13.25;;;;;;;;5018391;28;45378;-72
2021/10/12 08:41:55;;;;;;;;;15.50;14.00;;;;;;;;5018051;28;45636;-72
2021/10/12 08:44:21;;;;;;;;;18.00;14.00;;;;;;;;5018708;28;46463;-73
2021/10/12 08:46:47;;;;;;;;;16.25;12.25;;;;;;;;5018150;28;45460;-72
2021/10/12 08:49:12;;;;;;;;;16.75;12.00;;;;;;;;5018298;28;45497;-72
2021/10/12 08:51:38;;;;;;;;;16.50;16.00;;;;;;;;5017441;28;45336;-67
2021/10/12 08:54:03;;;;;;;;;14.00;13.25;;;;;;;;5017457;28;45312;-68
2021/10/12 08:56:28;;;;;;;;;15.25;12.00;;;;;;;;5017906;28;45182;-68
2021/10/12 08:58:54;;;;;;;;;18.50;16.50;;;;;;;;5016833;28;45261;-66
2021/10/12 09:01:19;;;;;;;;;19.25;14.75;;;;;;;;5017137;28;45415;-69
2021/10/12 09:03:58;;;;;;;;;18.25;17.25;;;;;;;;5016751;28;45553;-68
2021/10/12 09:06:30;;;;;;;;;19.75;17.25;;;;;;;;5015384;28;45291;-72
2021/10/12 09:08:58;;;;;;;;;17.50;17.50;;;;;;;;5017147;28;45472;-73
2021/10/12 09:11:24;;;;;;;;;17.00;15.50;;;;;;;;5017267;28;45926;-69
2021/10/12 09:13:51;;;;;;;;;18.50;16.00;;;;;;;;5017414;28;45481;-72
2021/10/12 09:16:17;;;;;;;;;15.25;14.00;;;;;;;;5016194;28;45411;-70
2021/10/12 09:18:45;;;;;;;;;18.25;14.50;;;;;;;;5018576;28;45336;-69
2021/10/12 09:21:14;;;;;;;;;17.00;14.75;;;;;;;;5019975;28;45334;-70
2021/10/12 09:23:41;;;;;;;;;17.00;14.25;;;;;;;;5018607;28;46741;-72
2021/10/12 09:26:16;;;;;;;;;14.00;13.50;;;;;;;;5020181;28;45225;-74
2021/10/12 09:28:42;;;;;;;;;28.00;19.25;;;;;;;;5019566;28;45390;-74
2021/10/12 09:31:07;;;;;;;;;21.00;16.00;;;;;;;;5019291;28;45263;-70
2021/10/12 09:33:44;;;;;;;;;20.50;16.75;;;;;;;;5018950;28;45530;-67
2021/10/12 09:36:25;;;;;;;;;15.25;13.75;;;;;;;;5000388;28;45377;-72
2021/10/12 09:38:50;;;;;;;;;18.25;15.25;;;;;;;;5017982;28;45374;-73
2021/10/12 09:41:16;;;;;;;;;14.00;12.50;;;;;;;;5017843;28;45639;-71
2021/10/12 09:43:41;;;;;;;;;21.00;17.50;;;;;;;;5015808;28;46516;-73
2021/10/12 09:46:20;;;;;;;;;13.00;10.25;;;;;;;;5016925;28;45218;-73
2021/10/12 09:48:45;;;;;;;;;22.25;18.75;;;;;;;;5016965;28;45420;-70
2021/10/12 09:51:12;;;;;;;;;16.25;15.00;;;;;;;;5016612;28;45545;-72
2021/10/12 09:53:42;;;;;;;;;19.50;17.25;;;;;;;;5016756;28;45500;-74
2021/10/12 09:56:08;;;;;;;;;18.00;16.50;;;;;;;;5016211;28;45370;-71
2021/10/12 09:58:34;;;;;;;;;19.00;16.25;;;;;;;;5016701;28;45394;-73
2021/10/12 10:01:00;;;;;;;;;17.75;16.50;;;;;;;;5015540;28;45633;-74
2021/10/12 10:03:27;;;;;;;;;24.25;21.75;;;;;;;;5016415;28;45340;-70
2021/10/12 10:05:53;;;;;;;;;18.25;18.00;;;;;;;;5016199;28;45368;-68
2021/10/12 10:08:18;;;;;;;;;20.25;18.00;;;;;;;;5016325;28;45237;-71
2021/10/12 10:10:44;;;;;;;;;19.00;16.50;;;;;;;;5016443;28;45575;-73
2021/10/12 10:13:10;;;;;;;;;20.50;18.00;;;;;;;;5014362;28;45570;-74
2021/10/12 10:15:35;;;;;;;;;21.75;19.25;;;;;;;;5015808;28;45247;-72
2021/10/12 10:18:01;;;;;;;;;18.75;11.75;;;;;;;;5016163;28;45309;-73
2021/10/12 10:20:27;;;;;;;;;14.00;9.50;;;;;;;;5016331;28;45478;-74
2021/10/12 10:22:56;;;;;;;;;17.75;17.50;;;;;;;;5015735;28;45528;-70
2021/10/12 10:25:21;;;;;;;;;24.00;17.75;;;;;;;;5014254;28;45364;-76
2021/10/12 10:27:46;;;;;;;;;17.00;14.00;;;;;;;;5014261;28;45402;-73
2021/10/12 10:30:14;;;;;;;;;17.25;16.00;;;;;;;;5015966;28;45320;-74
2021/10/12 10:32:49;;;;;;;;;20.00;16.00;;;;;;;;5015644;28;45615;-69
2021/10/12 10:35:16;;;;;;;;;20.50;15.00;;;;;;;;5015774;28;45273;-69
2021/10/12 10:37:41;;;;;;;;;10.00;7.00;;;;;;;;5015480;28;45332;-68
2021/10/12 10:40:27;;;;;;;;;15.50;14.50;;;;;;;;5014781;28;45643;-71
2021/10/12 10:42:53;;;;;;;;;19.00;16.25;;;;;;;;5015774;28;45483;-74
2021/10/12 10:45:19;;;;;;;;;16.75;15.75;;;;;;;;5015945;28;45209;-72
2021/10/12 10:47:44;;;;;;;;;14.50;13.75;;;;;;;;5015058;28;45886;-73
2021/10/12 10:50:10;;;;;;;;;13.75;10.50;;;;;;;;5016434;28;45689;-73
2021/10/12 10:52:43;;;;;;;;;17.25;14.75;;;;;;;;5015840;28;47253;-70
2021/10/12 10:55:09;;;;;;;;;11.50;9.00;;;;;;;;5014896;28;45336;-69
2021/10/12 10:57:35;;;;;;;;;14.50;10.75;;;;;;;;5015261;28;45185;-71
2021/10/12 11:00:12;;;;;;;;;13.25;13.25;;;;;;;;5015690;28;45327;-69
2021/10/12 11:02:37;;;;;;;;;14.00;13.25;;;;;;;;5013436;28;46465;-68
2021/10/12 11:05:03;;;;;;;;;19.50;15.75;;;;;;;;5013729;28;46542;-65
2021/10/12 11:07:29;;;;;;;;;16.50;14.75;;;;;;;;5015142;28;45379;-67
2021/10/12 11:09:54;;;;;;;;;14.25;12.25;;;;;;;;5015052;28;45435;-73
2021/10/12 11:12:21;;;;;;;;;10.00;10.00;;;;;;;;5014777;28;45389;-72
2021/10/12 11:14:46;;;;;;;;;29.25;24.50;;;;;;;;5015029;28;45390;-72
2021/10/12 11:17:12;;;;;;;;;13.75;9.50;;;;;;;;5014642;28;45296;-72
2021/10/12 11:19:58;;;;;;;;;8.25;7.50;;;;;;;;5015344;28;45540;-68
2021/10/12 11:22:24;;;;;;;;;5.25;5.00;;;;;;;;5013637;28;48087;-73
2021/10/12 11:24:50;;;;;;;;;10.50;7.00;;;;;;;;5014778;28;45352;-73
2021/10/12 11:27:19;;;;;;;;;9.50;7.75;;;;;;;;5015143;28;45379;-71
2021/10/12 11:29:44;;;;;;;;;11.75;10.00;;;;;;;;5013897;28;45272;-68
2021/10/12 11:32:09;;;;;;;;;9.75;9.75;;;;;;;;5014553;28;46047;-74
2021/10/12 11:34:35;;;;;;;;;10.50;10.00;;;;;;;;5015105;28;45336;-70
2021/10/12 11:37:08;;;;;;;;;5.50;5.50;;;;;;;;5014153;28;45392;-72
2021/10/12 11:39:34;;;;;;;;;6.50;6.50;;;;;;;;5015178;28;45376;-71
2021/10/12 11:42:02;;;;;;;;;11.25;8.00;;;;;;;;5014843;28;45309;-71
2021/10/12 11:44:28;;;;;;;;;7.25;6.50;;;;;;;;5013815;28;46942;-72
2021/10/12 11:47:02;;;;;;;;;7.75;7.00;;;;;;;;5013534;28;45281;-74
2021/10/12 11:49:28;;;;;;;;;12.25;8.75;;;;;;;;5015435;28;45269;-74
2021/10/12 11:51:53;;;;;;;;;7.25;6.00;;;;;;;;5015538;28;46602;-73
2021/10/12 11:54:23;;;;;;;;;8.00;6.00;;;;;;;;5015883;28;45254;-72
2021/10/12 11:56:48;;;;;;;;;6.25;4.75;;;;;;;;5016243;28;45408;-74
2021/10/12 11:59:13;;;;;;;;;5.00;5.00;;;;;;;;5014984;28;45444;-72
2021/10/12 12:01:42;;;;;;;;;7.50;6.25;;;;;;;;5014883;28;45338;-71
2021/10/12 12:04:07;;;;;;;;;5.00;4.25;;;;;;;;5013057;28;45699;-74
2021/10/12 12:06:34;;;;;;;;;3.50;3.50;;;;;;;;5013748;28;45369;-65
2021/10/12 12:09:01;;;;;;;;;5.25;4.00;;;;;;;;5019026;28;45331;-72
2021/10/12 12:11:31;;;;;;;;;9.75;5.25;;;;;;;;5017749;28;45475;-68
2021/10/12 12:13:57;;;;;;;;;7.25;5.00;;;;;;;;5018291;28;45430;-74
2021/10/12 12:16:23;;;;;;;;;5.75;3.50;;;;;;;;5019231;28;45460;-70
2021/10/12 12:18:49;;;;;;;;;6.00;5.00;;;;;;;;5017171;28;45565;-72
2021/10/12 12:21:25;;;;;;;;;4.25;3.75;;;;;;;;5018457;28;45423;-71
2021/10/12 12:23:54;;;;;;;;;6.00;4.25;;;;;;;;5018140;28;45359;-71
2021/10/12 12:26:21;;;;;;;;;5.50;4.50;;;;;;;;5018504;28;45363;-70
2021/10/12 12:28:46;;;;;;;;;7.00;5.00;;;;;;;;5018139;28;45565;-71
2021/10/12 12:31:22;;;;;;;;;7.75;4.00;;;;;;;;5017518;28;45447;-73
2021/10/12 12:33:48;;;;;;;;;5.00;5.00;;;;;;;;5017970;28;45394;-69
2021/10/12 12:36:16;;;;;;;;;3.25;3.00;;;;;;;;5017872;28;45314;-72
2021/10/12 12:38:42;;;;;;;;;6.75;5.00;;;;;;;;5017923;28;45312;-72
2021/10/12 12:41:18;;;;;;;;;6.50;6.50;;;;;;;;5017939;28;46593;-67
2021/10/12 12:43:54;;;;;;;;;7.25;5.00;;;;;;;;5017823;28;45308;-68
2021/10/12 12:46:21;;;;;;;;;9.75;5.75;;;;;;;;5017745;28;45385;-72
2021/10/12 12:49:00;;;;;;;;;4.50;4.00;;;;;;;;5015935;28;45572;-74
2021/10/12 12:51:29;;;;;;;;;6.75;4.50;;;;;;;;5017635;28;46516;-70
2021/10/12 12:53:54;;;;;;;;;6.75;3.75;;;;;;;;5017284;28;45380;-72
2021/10/12 12:56:19;;;;;;;;;4.50;4.50;;;;;;;;5016020;28;45327;-67
2021/10/12 12:58:46;;;;;;;;;9.00;8.25;;;;;;;;5017836;28;45248;-76
2021/10/12 13:01:15;;;;;;;;;8.00;6.00;;;;;;;;5017357;28;45271;-71
2021/10/12 13:03:41;;;;;;;;;5.00;3.50;;;;;;;;5016342;28;45427;-66
2021/10/12 13:06:06;;;;;;;;;7.00;5.25;;;;;;;;5016575;28;45439;-68
2021/10/12 13:08:32;;;;;;;;;8.00;3.75;;;;;;;;5018035;28;45445;-73
2021/10/12 13:10:57;;;;;;;;;5.75;5.25;;;;;;;;5017344;28;46202;-71
2021/10/12 13:13:22;;;;;;;;;6.00;5.25;;;;;;;;5017298;28;45303;-75
2021/10/12 13:15:48;;;;;;;;;8.25;7.00;;;;;;;;5015957;28;45399;-75
2021/10/12 13:18:13;;;;;;;;;10.25;8.00;;;;;;;;5017244;28;45296;-74
2021/10/12 13:20:38;;;;;;;;;8.75;6.00;;;;;;;;5015608;28;47562;-73
2021/10/12 13:23:04;;;;;;;;;8.00;6.00;;;;;;;;5017461;28;45469;-73
2021/10/12 13:25:29;;;;;;;;;7.50;7.00;;;;;;;;5017381;28;45252;-71
2021/10/12 13:27:55;;;;;;;;;7.00;7.00;;;;;;;;5017333;28;45288;-72
2021/10/12 13:30:20;;;;;;;;;9.00;7.00;;;;;;;;5015169;28;48212;-69
2021/10/12 13:32:45;;;;;;;;;8.00;7.00;;;;;;;;5016949;28;45265;-71
2021/10/12 13:35:16;;;;;;;;;6.00;6.00;;;;;;;;5017148;28;45296;-74
2021/10/12 13:37:42;;;;;;;;;7.25;4.00;;;;;;;;5015765;28;45317;-71
2021/10/12 13:40:08;;;;;;;;;5.00;5.00;;;;;;;;5017114;28;46172;-72
2021/10/12 13:42:33;;;;;;;;;9.00;7.00;;;;;;;;5016868;28;45379;-71
2021/10/12 13:45:01;;;;;;;;;9.50;7.00;;;;;;;;5016737;28;45371;-74
2021/10/12 13:47:26;;;;;;;;;7.50;4.50;;;;;;;;5017029;28;45411;-67
2021/10/12 13:49:52;;;;;;;;;7.25;6.00;;;;;;;;5016415;28;45263;-72
2021/10/12 13:52:19;;;;;;;;;6.25;4.50;;;;;;;;5016606;28;45351;-66
2021/10/12 13:54:45;;;;;;;;;7.75;4.75;;;;;;;;5015317;28;45513;-73
2021/10/12 13:57:10;;;;;;;;;7.00;6.25;;;;;;;;5016604;28;45542;-72
2021/10/12 13:59:35;;;;;;;;;7.75;5.75;;;;;;;;5017376;28;45696;-69
2021/10/12 14:02:02;;;;;;;;;7.75;7.00;;;;;;;;5016199;28;45423;-68
2021/10/12 14:04:29;;;;;;;;;6.25;4.00;;;;;;;;5016511;28;45383;-70
2021/10/12 14:06:57;;;;;;;;;6.50;4.00;;;;;;;;5017578;28;45526;-71
2021/10/12 14:09:23;;;;;;;;;5.50;5.50;;;;;;;;5017976;28;45574;-69
2021/10/12 14:11:48;;;;;;;;;7.50;6.00;;;;;;;;5017013;28;45272;-71
2021/10/12 14:14:13;;;;;;;;;5.00;4.75;;;;;;;;5019175;28;45316;-70
2021/10/12 14:16:38;;;;;;;;;3.00;1.50;;;;;;;;5018851;28;45241;-72
2021/10/12 14:19:04;;;;;;;;;4.25;4.25;;;;;;;;5016682;28;45424;-72
2021/10/12 14:21:29;;;;;;;;;8.00;6.00;;;;;;;;5016635;28;45414;-72
2021/10/12 14:23:55;;;;;;;;;7.25;5.25;;;;;;;;5015095;28;45526;-70
2021/10/12 14:26:22;;;;;;;;;5.50;4.25;;;;;;;;5015262;28;45434;-73
2021/10/12 14:28:50;;;;;;;;;9.75;7.00;;;;;;;;5015213;28;46647;-71